Time;durP1;ratioP1;P1;durP2;ratioP2;P2;SDS_P1;SDS_P2;PMS_P1;PMS_P2;Temp;Humidity;BMP_temperature;BMP_pressure;BME280_temperature;BME280_humidity;BME280_pressure;Samples;Min_cycle;Max_cycle;Signal;HPM_P1;HPM_P2
2021/05/28 00:01:34;;;;;;;20.98;9.25;;;;;;;6.14;92.41;102648.13;4983732;28;20058;-74
2021/05/28 00:04:01;;;;;;;17.27;8.35;;;;;;;6.08;92.50;102649.78;4972105;28;20051;-73
2021/05/28 00:06:29;;;;;;;18.45;7.13;;;;;;;6.08;92.23;102660.41;4984679;28;20069;-74
2021/05/28 00:08:57;;;;;;;22.75;8.75;;;;;;;6.07;93.02;102651.56;4971896;28;20066;-75
2021/05/28 00:11:24;;;;;;;20.35;8.80;;;;;;;6.06;92.71;102651.53;4981610;28;20085;-72
2021/05/28 00:13:52;;;;;;;21.58;9.80;;;;;;;6.11;93.62;102653.41;4971836;28;20070;-73
2021/05/28 00:16:20;;;;;;;22.90;10.45;;;;;;;6.14;93.70;102653.44;4981194;28;20337;-74
2021/05/28 00:18:47;;;;;;;22.95;10.40;;;;;;;6.13;93.62;102645.47;4972877;28;20054;-72
2021/05/28 00:21:15;;;;;;;26.05;10.88;;;;;;;6.19;94.27;102647.34;4975571;28;20058;-73
2021/05/28 00:23:42;;;;;;;28.90;10.88;;;;;;;6.13;93.47;102645.47;4974502;28;20482;-74
2021/05/28 00:26:10;;;;;;;24.38;10.30;;;;;;;6.10;93.87;102648.97;4978525;28;20109;-74
2021/05/28 00:28:37;;;;;;;28.75;12.52;;;;;;;6.08;93.40;102636.53;4974504;28;20328;-75
2021/05/28 00:31:05;;;;;;;26.77;12.77;;;;;;;6.14;94.57;102640.19;4977169;28;20070;-73
2021/05/28 00:33:32;;;;;;;28.95;12.77;;;;;;;6.10;94.51;102648.09;4977142;28;20468;-73
2021/05/28 00:35:59;;;;;;;33.60;14.25;;;;;;;6.20;94.94;102644.72;4979143;28;20571;-74
2021/05/28 00:38:26;;;;;;;29.45;13.43;;;;;;;6.21;94.97;102649.13;4979165;28;20066;-74
2021/05/28 00:40:54;;;;;;;30.00;14.27;;;;;;;6.20;94.54;102650.00;4973441;28;20070;-73
2021/05/28 00:43:22;;;;;;;30.60;13.60;;;;;;;6.18;94.73;102651.75;4979292;28;20058;-74
2021/05/28 00:45:49;;;;;;;38.95;13.63;;;;;;;6.20;94.86;102654.41;4973839;28;20110;-75
2021/05/28 00:48:16;;;;;;;28.08;12.70;;;;;;;6.21;95.25;102658.84;4974613;28;20349;-74
2021/05/28 00:50:44;;;;;;;30.25;14.13;;;;;;;6.26;94.88;102660.69;4971969;28;20055;-75
2021/05/28 00:53:13;;;;;;;39.20;15.13;;;;;;;6.40;95.83;102667.97;4978748;28;20153;-74
2021/05/28 00:55:40;;;;;;;27.55;13.15;;;;;;;6.41;95.24;102669.75;4973298;28;20077;-74
2021/05/28 00:58:08;;;;;;;33.65;14.25;;;;;;;6.46;95.35;102665.41;5010206;28;20074;-73
2021/05/28 01:00:36;;;;;;;40.10;18.10;;;;;;;6.43;95.34;102668.88;4972937;28;20077;-73
2021/05/28 01:03:04;;;;;;;35.65;18.15;;;;;;;6.50;95.19;102672.53;4980111;28;20058;-73
2021/05/28 01:05:32;;;;;;;36.08;18.40;;;;;;;6.52;94.91;102663.72;4972655;28;20062;-73
2021/05/28 01:08:00;;;;;;;36.75;17.48;;;;;;;6.57;94.75;102668.19;4977102;28;20077;-73
2021/05/28 01:10:27;;;;;;;43.08;17.45;;;;;;;6.61;95.34;102676.22;4974266;28;20050;-73
2021/05/28 01:13:02;;;;;;;36.75;16.95;;;;;;;6.67;94.92;102664.78;4978986;28;20062;-73
2021/05/28 01:15:30;;;;;;;38.22;16.60;;;;;;;6.70;94.54;102667.50;4974426;28;20062;-74
2021/05/28 01:17:58;;;;;;;35.13;18.00;;;;;;;6.73;94.57;102662.22;4974458;28;20066;-73
2021/05/28 01:20:25;;;;;;;46.70;17.42;;;;;;;6.72;94.56;102661.34;4976292;28;20314;-73
2021/05/28 01:22:55;;;;;;;33.78;17.63;;;;;;;6.76;94.71;102666.66;4975664;28;20139;-72
2021/05/28 01:25:23;;;;;;;36.83;16.83;;;;;;;6.81;94.70;102664.97;4977700;28;20062;-72
2021/05/28 01:27:51;;;;;;;40.70;18.52;;;;;;;6.84;94.31;102667.66;4974653;28;20144;-74
2021/05/28 01:30:19;;;;;;;41.17;17.63;;;;;;;6.84;94.29;102663.25;4977622;28;20117;-72
2021/05/28 01:32:46;;;;;;;39.33;16.95;;;;;;;6.85;94.56;102659.72;4972440;28;20727;-73
2021/05/28 01:35:15;;;;;;;39.67;16.67;;;;;;;6.84;94.23;102667.66;4976669;28;20063;-74
2021/05/28 01:37:44;;;;;;;36.35;17.52;;;;;;;6.86;94.47;102661.53;4973704;28;20058;-75
2021/05/28 01:40:14;;;;;;;36.28;16.95;;;;;;;6.85;94.15;102659.72;4978444;28;20160;-74
2021/05/28 01:42:42;;;;;;;36.45;17.48;;;;;;;6.89;94.25;102650.91;4976055;28;20073;-73
2021/05/28 01:45:10;;;;;;;36.75;16.58;;;;;;;6.89;94.06;102652.69;4979331;28;20500;-73
2021/05/28 01:47:38;;;;;;;31.55;15.45;;;;;;;6.88;93.95;102648.28;4973138;28;20388;-73
2021/05/28 01:50:08;;;;;;;42.22;18.23;;;;;;;6.87;93.76;102652.66;4976230;28;20062;-73
2021/05/28 01:52:36;;;;;;;40.33;18.50;;;;;;;6.87;94.00;102647.38;4972047;28;20061;-74
2021/05/28 01:55:05;;;;;;;40.25;18.20;;;;;;;6.86;94.14;102652.66;4975583;28;20058;-73
2021/05/28 01:57:33;;;;;;;36.80;16.35;;;;;;;6.88;93.75;102649.16;4977203;28;20605;-73
2021/05/28 02:00:00;;;;;;;37.67;17.55;;;;;;;6.87;93.98;102655.31;4975336;28;20070;-74
2021/05/28 02:02:28;;;;;;;33.30;16.92;;;;;;;6.85;93.50;102661.50;4977880;28;20113;-74
2021/05/28 02:04:55;;;;;;;41.50;18.50;;;;;;;6.79;93.98;102664.06;4972945;28;20073;-74
2021/05/28 02:07:22;;;;;;;44.75;19.17;;;;;;;6.76;93.96;102664.94;4977245;28;20066;-73
2021/05/28 02:09:50;;;;;;;44.35;18.95;;;;;;;6.73;93.88;102663.13;4972397;28;21648;-73
2021/05/28 02:12:18;;;;;;;39.47;18.40;;;;;;;6.72;94.18;102664.00;4975052;28;20146;-75
2021/05/28 02:14:46;;;;;;;40.42;18.58;;;;;;;6.75;94.44;102659.59;4974459;28;20065;-74
2021/05/28 02:17:13;;;;;;;40.30;17.27;;;;;;;6.77;94.14;102665.81;4977187;28;20069;-75
2021/05/28 02:19:41;;;;;;;47.88;20.02;;;;;;;6.79;94.27;102666.72;4978417;28;20066;-74
2021/05/28 02:22:11;;;;;;;42.10;18.48;;;;;;;6.79;94.41;102669.38;4986532;28;20094;-73
2021/05/28 02:24:38;;;;;;;45.97;19.88;;;;;;;6.79;94.17;102669.38;4977121;28;20090;-74
2021/05/28 02:27:05;;;;;;;45.58;20.08;;;;;;;6.76;94.35;102672.91;4984744;28;20058;-75
2021/05/28 02:29:33;;;;;;;39.63;18.23;;;;;;;6.75;94.19;102667.56;4975965;28;20117;-75
2021/05/28 02:32:01;;;;;;;48.30;21.08;;;;;;;6.75;94.06;102665.78;4985191;28;20113;-73
2021/05/28 02:34:28;;;;;;;47.08;19.70;;;;;;;6.76;94.24;102666.66;4973561;28;20106;-74
2021/05/28 02:36:55;;;;;;;43.85;19.67;;;;;;;6.79;94.45;102677.34;4983793;28;20066;-74
2021/05/28 02:39:23;;;;;;;41.17;18.90;;;;;;;6.79;94.17;102682.63;4977511;28;20636;-74
2021/05/28 02:41:50;;;;;;;47.03;19.27;;;;;;;6.80;94.51;102679.13;4980019;28;20061;-74
2021/05/28 02:44:17;;;;;;;46.83;22.45;;;;;;;6.81;94.27;102687.09;4977285;28;20070;-74
2021/05/28 02:46:45;;;;;;;40.10;20.00;;;;;;;6.80;94.30;102677.34;4977518;28;20515;-74
2021/05/28 02:49:14;;;;;;;44.00;20.13;;;;;;;6.82;94.39;102698.59;4977429;28;20375;-74
2021/05/28 02:51:41;;;;;;;46.15;22.95;;;;;;;6.88;94.20;102701.34;4979886;28;20066;-73
2021/05/28 02:54:08;;;;;;;45.15;22.13;;;;;;;6.87;94.53;102702.22;4979294;28;20054;-74
2021/05/28 02:56:36;;;;;;;50.05;22.27;;;;;;;6.82;94.24;102699.50;4976965;28;20521;-74
2021/05/28 02:59:03;;;;;;;47.70;21.73;;;;;;;6.81;94.66;102703.03;4975991;28;20162;-75
2021/05/28 03:01:31;;;;;;;44.42;20.85;;;;;;;6.88;94.23;102707.53;4981018;28;20065;-74
2021/05/28 03:03:58;;;;;;;43.60;20.00;;;;;;;6.88;94.07;102711.97;4978032;28;20062;-73
2021/05/28 03:06:26;;;;;;;55.88;22.35;;;;;;;6.91;94.59;102709.31;4979431;28;20070;-74
2021/05/28 03:08:54;;;;;;;50.40;23.30;;;;;;;6.94;94.26;102705.84;4979467;28;20065;-74
2021/05/28 03:11:21;;;;;;;46.20;21.58;;;;;;;6.96;94.21;102706.75;4980270;28;20149;-74
2021/05/28 03:13:48;;;;;;;49.30;21.42;;;;;;;6.99;94.06;102720.06;4976382;28;20077;-74
2021/05/28 03:16:16;;;;;;;49.10;22.45;;;;;;;6.99;94.21;102712.09;4978211;28;20066;-74
2021/05/28 03:18:50;;;;;;;46.30;21.80;;;;;;;7.03;94.28;102722.78;4977187;28;20117;-74
2021/05/28 03:21:24;;;;;;;44.60;21.77;;;;;;;6.99;93.63;102715.63;4976242;28;20066;-74
2021/05/28 03:23:54;;;;;;;44.78;21.10;;;;;;;6.94;93.74;102717.34;4977638;28;20059;-74
2021/05/28 03:26:22;;;;;;;52.75;22.35;;;;;;;6.95;93.86;102720.88;4978357;28;20058;-74
2021/05/28 03:28:50;;;;;;;44.97;21.00;;;;;;;6.99;94.04;102723.59;4978036;28;20070;-73
2021/05/28 03:31:18;;;;;;;47.67;21.13;;;;;;;7.02;94.24;102717.44;4978016;28;20054;-74
2021/05/28 03:33:46;;;;;;;43.50;20.95;;;;;;;7.06;94.11;102714.81;4979032;28;20101;-74
2021/05/28 03:36:13;;;;;;;45.65;21.30;;;;;;;6.98;94.07;102711.22;4973285;28;20441;-75
2021/05/28 03:38:42;;;;;;;42.65;19.30;;;;;;;6.95;93.81;102705.84;5004847;28;20183;-74
2021/05/28 03:41:11;;;;;;;40.08;19.65;;;;;;;6.98;94.23;102699.69;4975447;28;20066;-74
2021/05/28 03:43:38;;;;;;;43.65;20.02;;;;;;;6.99;93.97;102707.66;4975596;28;20341;-73
2021/05/28 03:46:05;;;;;;;45.67;20.65;;;;;;;7.01;94.22;102705.03;4974520;28;20528;-73
2021/05/28 03:48:33;;;;;;;48.92;22.67;;;;;;;6.94;94.11;102712.03;4980532;28;20058;-73
2021/05/28 03:51:00;;;;;;;44.83;20.48;;;;;;;6.92;94.43;102709.34;4975677;28;20058;-74
2021/05/28 03:53:27;;;;;;;47.28;24.42;;;;;;;6.93;94.12;102712.91;4981117;28;20087;-74
2021/05/28 03:55:55;;;;;;;47.08;19.02;;;;;;;6.97;94.30;102713.84;4975788;28;20062;-74
2021/05/28 03:58:23;;;;;;;53.58;21.50;;;;;;;6.96;93.86;102712.03;4980276;28;20067;-74
2021/05/28 04:00:50;;;;;;;41.85;21.48;;;;;;;6.96;93.99;102718.25;4973844;28;20061;-73
2021/05/28 04:03:18;;;;;;;44.35;20.80;;;;;;;6.94;93.92;102716.44;4979104;28;20085;-74
2021/05/28 04:05:45;;;;;;;46.22;22.05;;;;;;;6.86;93.76;102719.00;4976776;28;20066;-73
2021/05/28 04:08:12;;;;;;;44.10;20.92;;;;;;;6.90;94.00;102724.38;4980221;28;20072;-74
2021/05/28 04:10:40;;;;;;;48.75;22.23;;;;;;;6.87;93.73;102719.00;4974925;28;20085;-74
2021/05/28 04:13:07;;;;;;;52.92;21.60;;;;;;;6.90;94.01;102720.84;4981410;28;20443;-74
2021/05/28 04:15:35;;;;;;;58.78;22.38;;;;;;;6.93;93.96;102718.22;4976464;28;20062;-74
2021/05/28 04:18:02;;;;;;;45.28;22.15;;;;;;;6.95;94.08;102712.91;4979584;28;20058;-73
2021/05/28 04:20:30;;;;;;;50.95;22.55;;;;;;;6.96;93.89;102717.34;4975996;28;20062;-73
2021/05/28 04:22:57;;;;;;;50.97;21.73;;;;;;;6.95;94.25;102711.16;4980955;28;20065;-74
2021/05/28 04:25:24;;;;;;;54.00;22.50;;;;;;;6.98;94.20;102710.31;4976689;28;20054;-74
2021/05/28 04:27:51;;;;;;;43.78;20.88;;;;;;;7.06;93.68;102721.91;4976319;28;20104;-74
2021/05/28 04:30:23;;;;;;;49.65;23.00;;;;;;;7.06;93.55;102725.44;4979173;28;20492;-72
2021/05/28 04:32:52;;;;;;;44.67;22.13;;;;;;;7.13;93.86;102726.41;4971767;28;20069;-73
2021/05/28 04:35:21;;;;;;;42.42;19.80;;;;;;;7.16;93.40;102729.13;4976808;28;20054;-73
2021/05/28 04:37:48;;;;;;;52.67;24.63;;;;;;;7.19;93.55;102725.63;4975743;28;20495;-74
2021/05/28 04:40:18;;;;;;;50.22;23.02;;;;;;;7.27;93.50;102727.50;4977829;28;20062;-74
2021/05/28 04:42:46;;;;;;;47.65;22.60;;;;;;;7.33;92.83;102731.09;4975601;28;20062;-74
2021/05/28 04:45:13;;;;;;;51.40;23.48;;;;;;;7.33;93.26;102731.97;4978772;28;20332;-74
2021/05/28 04:47:41;;;;;;;51.17;21.80;;;;;;;7.44;92.76;102729.44;4975412;28;20075;-74
2021/05/28 04:50:10;;;;;;;53.95;21.75;;;;;;;7.39;92.75;102724.09;4976237;28;20062;-74
2021/05/28 04:52:37;;;;;;;48.42;22.33;;;;;;;7.45;92.75;102726.78;4975369;28;20058;-73
2021/05/28 04:55:06;;;;;;;51.40;23.30;;;;;;;7.50;92.60;102724.19;4977796;28;20213;-73
2021/05/28 04:57:33;;;;;;;48.70;21.52;;;;;;;7.57;92.35;102727.81;4976222;28;20062;-73
2021/05/28 05:00:01;;;;;;;52.63;21.40;;;;;;;7.66;92.63;102734.13;4974919;28;20101;-74
2021/05/28 05:02:28;;;;;;;51.00;23.25;;;;;;;7.50;91.89;102728.63;4980662;28;20065;-74
2021/05/28 05:04:55;;;;;;;48.67;23.15;;;;;;;7.62;91.91;102734.06;4972062;28;20089;-72
2021/05/28 05:07:24;;;;;;;57.75;24.98;;;;;;;7.70;91.48;102732.38;4983484;28;20069;-73
2021/05/28 05:09:51;;;;;;;47.80;22.00;;;;;;;7.82;91.54;102735.16;4975993;28;20105;-74
2021/05/28 05:12:19;;;;;;;47.78;20.35;;;;;;;8.07;90.92;102743.38;4980628;28;20070;-74
2021/05/28 05:14:46;;;;;;;58.15;24.95;;;;;;;8.16;89.95;102745.22;4973029;28;20069;-74
2021/05/28 05:17:13;;;;;;;51.15;21.85;;;;;;;8.16;89.72;102754.06;4979382;28;20741;-74
2021/05/28 05:19:40;;;;;;;45.90;20.58;;;;;;;8.38;90.19;102762.22;4968404;28;20067;-74
2021/05/28 05:22:10;;;;;;;47.75;22.17;;;;;;;8.36;89.33;102758.63;4977990;28;20066;-73
2021/05/28 05:24:38;;;;;;;47.05;21.40;;;;;;;8.48;89.39;102755.22;4973569;28;20069;-73
2021/05/28 05:27:06;;;;;;;56.85;25.02;;;;;;;8.55;88.60;102762.38;5006943;28;20062;-74
2021/05/28 05:29:33;;;;;;;57.65;25.70;;;;;;;9.43;87.74;102752.16;4973341;28;20058;-73
2021/05/28 05:32:01;;;;;;;51.17;23.95;;;;;;;9.86;85.49;102752.28;4976884;28;20148;-74
2021/05/28 05:34:28;;;;;;;53.80;24.42;;;;;;;10.25;84.22;102748.72;4971677;28;20120;-73
2021/05/28 05:36:58;;;;;;;51.30;23.23;;;;;;;10.27;81.83;102748.75;4979155;28;20073;-73
2021/05/28 05:39:25;;;;;;;50.70;24.55;;;;;;;10.84;81.04;102752.25;4973992;28;20069;-73
2021/05/28 05:41:53;;;;;;;50.95;22.77;;;;;;;11.37;81.63;102744.91;4979758;28;20062;-73
2021/05/28 05:44:20;;;;;;;50.55;22.73;;;;;;;11.59;79.02;102752.78;4974049;28;20061;-73
2021/05/28 05:46:48;;;;;;;48.65;23.42;;;;;;;11.83;77.66;102750.88;4976549;28;20128;-73
2021/05/28 05:49:16;;;;;;;49.25;23.33;;;;;;;11.45;77.59;102752.88;4974263;28;20577;-74
2021/05/28 05:51:44;;;;;;;46.10;21.88;;;;;;;11.95;77.81;102754.38;4977418;28;20077;-73
2021/05/28 05:54:11;;;;;;;42.40;19.63;;;;;;;11.88;75.59;102752.59;4974660;28;20169;-73
2021/05/28 05:56:38;;;;;;;34.90;19.65;;;;;;;11.88;74.52;102757.94;4973402;28;20062;-73
2021/05/28 05:59:06;;;;;;;39.22;19.75;;;;;;;11.95;74.61;102757.06;4974785;28;20097;-74
2021/05/28 06:01:33;;;;;;;40.42;19.67;;;;;;;12.20;74.23;102751.50;4970691;28;20054;-73
2021/05/28 06:04:01;;;;;;;33.60;19.23;;;;;;;12.78;73.67;102760.75;4975420;28;20063;-74
2021/05/28 06:06:28;;;;;;;36.03;17.70;;;;;;;12.87;73.66;102762.44;4970721;28;20062;-74
2021/05/28 06:08:55;;;;;;;32.28;16.88;;;;;;;13.14;71.30;102768.41;4974478;28;20521;-77
2021/05/28 06:11:22;;;;;;;36.55;17.58;;;;;;;13.38;71.48;102765.47;4971775;28;20066;-75
2021/05/28 06:13:50;;;;;;;34.13;17.88;;;;;;;13.33;70.85;102769.09;4973166;28;20445;-75
2021/05/28 06:16:18;;;;;;;38.70;19.23;;;;;;;13.54;70.69;102765.25;4973160;28;20062;-75
2021/05/28 06:18:45;;;;;;;31.23;17.05;;;;;;;13.55;69.75;102759.88;4974889;28;20054;-72
2021/05/28 06:21:12;;;;;;;32.75;17.55;;;;;;;13.50;68.93;102769.78;4974829;28;20066;-73
2021/05/28 06:23:40;;;;;;;30.90;14.18;;;;;;;13.92;68.79;102769.16;4973702;28;20078;-73
2021/05/28 06:26:07;;;;;;;25.92;12.90;;;;;;;13.85;67.49;102773.72;4975940;28;20445;-73
2021/05/28 06:28:34;;;;;;;22.35;12.27;;;;;;;13.60;67.66;102771.41;4972458;28;20873;-72
2021/05/28 06:31:01;;;;;;;30.10;14.77;;;;;;;13.76;67.66;102776.56;4977243;28;20073;-72
2021/05/28 06:33:29;;;;;;;21.85;12.75;;;;;;;13.97;67.04;102772.66;4972882;28;20163;-73
2021/05/28 06:35:57;;;;;;;28.75;13.63;;;;;;;14.03;65.04;102780.63;4978988;28;20207;-73
2021/05/28 06:38:24;;;;;;;27.73;13.10;;;;;;;14.49;66.27;102777.16;4970716;28;20400;-73
2021/05/28 06:40:51;;;;;;;25.00;13.65;;;;;;;14.82;63.47;102782.84;4975265;28;20093;-73
2021/05/28 06:43:19;;;;;;;27.98;13.70;;;;;;;14.98;65.03;102777.16;4970057;28;20074;-73
2021/05/28 06:45:46;;;;;;;27.63;14.20;;;;;;;15.17;64.15;102775.91;4975081;28;20086;-74
2021/05/28 06:48:14;;;;;;;26.58;15.52;;;;;;;15.19;62.78;102773.16;4971013;28;20302;-74
2021/05/28 06:50:42;;;;;;;27.45;14.25;;;;;;;15.23;63.11;102783.81;4979171;28;20361;-74
2021/05/28 06:53:10;;;;;;;23.85;12.60;;;;;;;15.48;62.48;102772.56;4976155;28;20062;-75
2021/05/28 06:55:38;;;;;;;19.58;10.40;;;;;;;14.72;62.21;102781.25;4973266;28;20072;-74
2021/05/28 06:58:06;;;;;;;21.65;10.80;;;;;;;15.09;62.64;102776.03;4971905;28;20400;-74
2021/05/28 07:00:33;;;;;;;20.08;10.88;;;;;;;15.29;61.26;102774.75;4976323;28;20093;-73
2021/05/28 07:03:00;;;;;;;22.83;11.43;;;;;;;15.19;59.93;102781.22;4975361;28;20063;-74
2021/05/28 07:05:28;;;;;;;20.02;9.90;;;;;;;15.51;60.71;102769.81;4980293;28;20070;-73
2021/05/28 07:07:57;;;;;;;19.10;10.43;;;;;;;15.71;59.13;102776.53;4975546;28;20158;-73
2021/05/28 07:10:24;;;;;;;17.83;10.93;;;;;;;15.76;58.70;102771.94;4971572;28;20168;-73
2021/05/28 07:12:52;;;;;;;20.50;10.75;;;;;;;16.14;58.74;102781.81;4974263;28;20118;-73
2021/05/28 07:15:21;;;;;;;19.45;10.65;;;;;;;16.13;58.66;102771.06;4973620;28;20090;-73
2021/05/28 07:17:48;;;;;;;23.38;11.77;;;;;;;16.11;58.23;102781.00;4973727;28;20137;-73
2021/05/28 07:20:16;;;;;;;19.70;9.82;;;;;;;16.04;56.54;102781.16;4975221;28;20494;-73
2021/05/28 07:22:43;;;;;;;19.42;11.10;;;;;;;16.40;58.21;102778.44;4975901;28;20457;-75
2021/05/28 07:25:15;;;;;;;22.60;11.65;;;;;;;16.74;57.47;102779.38;4975772;28;20491;-73
2021/05/28 07:27:43;;;;;;;19.38;10.50;;;;;;;16.68;56.37;102777.72;4976850;28;20062;-73
2021/05/28 07:30:12;;;;;;;21.73;11.57;;;;;;;16.51;55.99;102777.28;4980434;28;20109;-72
2021/05/28 07:32:39;;;;;;;23.13;10.77;;;;;;;16.76;55.46;102780.22;4976097;28;20062;-72
2021/05/28 07:35:08;;;;;;;19.55;9.88;;;;;;;16.76;56.11;102769.44;4974392;28;20069;-72
2021/05/28 07:37:35;;;;;;;19.25;9.15;;;;;;;16.67;54.82;102775.97;4981841;28;20054;-73
2021/05/28 07:40:04;;;;;;;17.23;9.57;;;;;;;16.60;54.68;102774.34;4978498;28;20211;-72
2021/05/28 07:42:32;;;;;;;21.15;9.73;;;;;;;17.04;55.69;102772.25;4977036;28;20571;-73
2021/05/28 07:44:59;;;;;;;18.92;10.82;;;;;;;16.73;55.21;102767.69;4980214;28;20073;-72
2021/05/28 07:47:27;;;;;;;17.17;8.45;;;;;;;16.57;54.57;102778.00;4980995;28;20074;-72
2021/05/28 07:49:54;;;;;;;17.55;9.50;;;;;;;16.87;53.71;102771.84;4977898;28;20070;-72
2021/05/28 07:52:21;;;;;;;17.98;8.70;;;;;;;17.08;54.05;102770.38;4977092;28;20073;-72
2021/05/28 07:54:49;;;;;;;17.50;9.20;;;;;;;16.94;52.76;102774.34;4977133;28;20086;-72
2021/05/28 07:57:16;;;;;;;18.02;9.98;;;;;;;17.35;51.49;102768.69;4979894;28;20054;-72
2021/05/28 07:59:45;;;;;;;17.80;8.65;;;;;;;17.66;51.96;102763.22;4978106;28;20473;-72
2021/05/28 08:02:12;;;;;;;20.13;9.85;;;;;;;17.38;52.06;102778.47;4977094;28;20190;-72
2021/05/28 08:04:39;;;;;;;17.83;8.60;;;;;;;17.36;52.39;102763.22;4971853;28;20364;-73
2021/05/28 08:07:06;;;;;;;17.98;8.88;;;;;;;17.50;52.55;102768.22;4977990;28;20065;-73
2021/05/28 08:09:33;;;;;;;17.30;8.98;;;;;;;17.14;51.74;102764.78;4973998;28;20073;-73
2021/05/28 08:12:01;;;;;;;15.70;8.20;;;;;;;17.47;51.21;102762.91;4981005;28;20078;-73
2021/05/28 08:14:28;;;;;;;14.77;7.07;;;;;;;18.08;48.53;102756.47;4972971;28;20507;-74
2021/05/28 08:16:56;;;;;;;18.15;8.45;;;;;;;18.34;49.31;102760.13;4978635;28;20076;-73
2021/05/28 08:19:24;;;;;;;16.38;8.32;;;;;;;18.55;49.46;102753.97;4973296;28;20157;-74
2021/05/28 08:21:51;;;;;;;16.88;8.15;;;;;;;18.49;49.39;102762.31;4977139;28;20062;-73
2021/05/28 08:24:18;;;;;;;15.00;8.23;;;;;;;18.91;49.56;102772.53;4972693;28;20065;-74
2021/05/28 08:26:46;;;;;;;16.42;8.85;;;;;;;18.22;50.32;102764.16;4979731;28;20068;-74
2021/05/28 08:29:13;;;;;;;17.95;8.63;;;;;;;18.54;48.45;102771.16;4975760;28;20067;-74
2021/05/28 08:31:40;;;;;;;14.88;7.55;;;;;;;18.88;48.44;102763.66;4982720;28;20066;-74
2021/05/28 08:34:09;;;;;;;16.05;7.18;;;;;;;18.57;47.25;102767.44;4972861;28;20062;-74
2021/05/28 08:36:38;;;;;;;14.68;7.45;;;;;;;18.58;46.54;102769.22;4973423;28;20158;-73
2021/05/28 08:39:06;;;;;;;13.35;6.10;;;;;;;18.71;47.31;102766.94;4971666;28;20109;-73
2021/05/28 08:41:35;;;;;;;16.52;8.48;;;;;;;18.50;47.59;102765.91;4973360;28;20074;-73
2021/05/28 08:44:02;;;;;;;13.98;7.70;;;;;;;18.40;48.39;102773.44;4971540;28;20094;-73
2021/05/28 08:46:30;;;;;;;14.95;8.30;;;;;;;18.22;48.22;102766.84;4975238;28;20085;-73
2021/05/28 08:48:57;;;;;;;15.48;8.45;;;;;;;18.62;49.56;102766.31;4976429;28;20070;-73
2021/05/28 08:51:25;;;;;;;16.13;9.25;;;;;;;18.27;48.24;102765.75;4976427;28;20059;-72
2021/05/28 08:54:11;;;;;;;16.33;8.48;;;;;;;17.85;49.33;102762.63;4975543;28;20548;-72
2021/05/28 08:56:57;;;;;;;15.48;7.07;;;;;;;18.89;48.33;102768.16;4975270;28;21226;-72
2021/05/28 08:59:45;;;;;;;16.27;7.88;;;;;;;18.94;48.11;102760.75;4976487;28;20413;-73
2021/05/28 09:02:35;;;;;;;14.30;7.80;;;;;;;18.47;46.82;102765.06;4979204;28;20090;-75
2021/05/28 09:05:24;;;;;;;14.07;7.88;;;;;;;19.20;47.09;102760.63;4977223;28;20058;-75
2021/05/28 09:08:13;;;;;;;15.18;7.93;;;;;;;18.92;46.34;102758.09;4978027;28;20062;-75
2021/05/28 17:44:30;;;;;;;7.30;3.97;;;;;;;20.84;34.56;102531.47;6188490;22;1238027;-75
2021/05/28 17:50:28;;;;;;;7.68;3.83;;;;;;;20.89;33.20;102532.13;5078690;27;20652;-74
2021/05/28 17:52:56;;;;;;;6.47;2.90;;;;;;;20.62;34.65;102523.44;5067788;28;20056;-74
2021/05/28 17:55:23;;;;;;;6.65;3.28;;;;;;;20.56;34.75;102524.63;5066043;28;20063;-74
2021/05/28 17:57:51;;;;;;;8.27;3.60;;;;;;;20.26;35.42;102526.94;5073253;28;20386;-75
2021/05/28 18:00:18;;;;;;;7.80;3.83;;;;;;;19.82;36.21;102529.84;5075222;28;20212;-74
2021/05/28 18:02:46;;;;;;;7.13;3.35;;;;;;;19.41;35.14;102533.41;5075709;28;20126;-74
2021/05/28 18:05:13;;;;;;;7.97;3.00;;;;;;;19.45;33.98;102535.03;5073644;28;20859;-73
2021/05/28 18:07:56;;;;;;;6.80;2.78;;;;;;;19.44;32.54;102526.97;5075852;28;20067;-75
2021/05/28 18:13:30;;;;;;;3.72;2.42;;;;;;;19.99;32.94;102539.94;5047622;28;20064;-76
2021/05/28 18:16:16;;;;;;;5.80;2.70;;;;;;;20.04;32.67;102533.38;5073619;28;20056;-75
2021/05/28 18:18:48;;;;;;;4.18;2.55;;;;;;;19.94;33.36;102516.66;5076543;28;20166;-76
2021/05/28 18:21:16;;;;;;;5.88;3.50;;;;;;;20.22;33.75;102538.91;5071955;28;20071;-76
2021/05/28 18:23:44;;;;;;;4.80;3.05;;;;;;;20.60;33.20;102531.69;5074770;28;20055;-75
2021/05/28 18:26:11;;;;;;;7.10;3.60;;;;;;;20.97;35.78;102542.59;5075496;28;20067;-75
2021/05/28 18:32:26;;;;;;;11.50;7.25;;;;;;;21.02;44.59;102537.84;5065670;27;20162;-74
2021/05/28 18:35:52;;;;;;;14.00;8.70;;;;;;;20.93;44.51;102538.31;5077562;28;20155;-74
2021/05/28 18:38:19;;;;;;;10.55;6.45;;;;;;;20.55;46.15;102543.69;5074893;28;21556;-74
2021/05/28 18:40:47;;;;;;;9.90;6.75;;;;;;;20.29;47.59;102535.81;5076561;28;20061;-75
2021/05/28 18:43:15;;;;;;;12.40;6.50;;;;;;;19.53;49.60;102550.91;5075460;28;20078;-75
2021/05/28 18:45:43;;;;;;;17.85;14.02;;;;;;;19.35;50.07;102549.88;5079374;28;20067;-74
2021/05/28 18:48:11;;;;;;;15.27;7.57;;;;;;;19.23;50.63;102546.75;5076654;28;20292;-74
2021/05/28 18:53:35;;;;;;;11.38;6.85;;;;;;;18.51;52.48;102544.22;5039544;28;20493;-74
2021/05/28 18:56:06;;;;;;;14.98;6.72;;;;;;;18.11;53.30;102553.78;5074584;28;20542;-74
2021/05/28 18:58:34;;;;;;;15.50;6.93;;;;;;;17.93;54.25;102544.56;5074675;28;20056;-75
2021/05/28 19:01:11;;;;;;;12.48;7.30;;;;;;;17.31;56.46;102559.25;5066226;28;20052;-74
2021/05/28 19:03:43;;;;;;;13.38;7.18;;;;;;;17.07;57.46;102547.47;5060945;28;20099;-75
2021/05/28 19:06:11;;;;;;;14.23;7.38;;;;;;;17.22;57.16;102554.19;5060106;28;20068;-74
2021/05/28 19:08:40;;;;;;;14.73;8.40;;;;;;;17.09;57.56;102556.38;5076482;28;20890;-76
2021/05/28 19:11:10;;;;;;;13.98;7.15;;;;;;;17.04;56.87;102561.03;5056657;28;20056;-75
2021/05/28 19:13:40;;;;;;;15.48;9.45;;;;;;;17.04;56.59;102559.22;5063365;28;20067;-75
2021/05/28 19:16:08;;;;;;;15.48;9.13;;;;;;;16.80;56.44;102569.84;5061242;28;20067;-77
2021/05/28 19:18:36;;;;;;;13.35;8.38;;;;;;;16.70;55.91;102573.75;5063644;28;20056;-74
2021/05/28 19:21:08;;;;;;;16.80;10.02;;;;;;;16.60;56.24;102574.91;5057551;28;20052;-74
2021/05/28 19:23:36;;;;;;;16.65;8.70;;;;;;;16.48;57.13;102584.28;5064611;28;20110;-75
2021/05/28 19:26:05;;;;;;;15.15;9.30;;;;;;;16.32;57.21;102586.50;5058922;28;20074;-75
2021/05/28 19:28:36;;;;;;;12.73;7.72;;;;;;;16.17;58.27;102593.19;5062466;28;21157;-77
2021/05/28 19:31:10;;;;;;;14.80;8.38;;;;;;;16.02;59.28;102594.53;5058622;28;20060;-77
2021/05/28 19:33:41;;;;;;;16.92;8.02;;;;;;;15.82;60.68;102588.78;5063443;28;20056;-78
2021/05/28 19:36:09;;;;;;;16.58;8.55;;;;;;;15.72;61.65;102598.00;5059651;28;20102;-75
2021/05/28 19:38:37;;;;;;;15.60;8.27;;;;;;;15.68;61.53;102597.16;5063105;28;20064;-74
2021/05/28 19:41:05;;;;;;;16.42;8.45;;;;;;;15.55;63.66;102607.38;5061228;28;20143;-75
2021/05/28 19:43:33;;;;;;;15.05;9.68;;;;;;;15.40;64.70;102600.56;5061507;28;20063;-76
2021/05/28 19:46:01;;;;;;;17.23;10.27;;;;;;;15.29;64.98;102600.81;5062087;28;20155;-76
2021/05/28 19:48:29;;;;;;;19.48;10.27;;;;;;;15.19;66.24;102601.97;5061051;28;20064;-75
2021/05/28 19:51:02;;;;;;;18.58;9.27;;;;;;;15.15;65.89;102612.81;5059441;28;20060;-76
2021/05/28 19:53:35;;;;;;;19.98;10.57;;;;;;;14.92;66.45;102617.81;5060893;28;20512;-75
2021/05/28 19:56:05;;;;;;;20.95;11.38;;;;;;;14.81;65.87;102625.19;5059147;28;20067;-77
2021/05/28 19:58:33;;;;;;;14.60;8.38;;;;;;;14.69;65.07;102622.78;5061569;28;20071;-79
2021/05/28 20:01:04;;;;;;;12.65;7.18;;;;;;;14.59;63.95;102627.44;5061021;28;20060;-78
2021/05/28 20:03:33;;;;;;;12.57;6.55;;;;;;;14.55;62.57;102623.91;5062608;28;20067;-77
2021/05/28 20:06:04;;;;;;;12.73;7.25;;;;;;;14.43;62.71;102642.09;5061625;28;20103;-78
2021/05/28 20:08:32;;;;;;;11.40;7.05;;;;;;;14.32;62.56;102639.59;5062456;28;20059;-79
2021/05/28 20:11:10;;;;;;;13.23;6.60;;;;;;;14.32;62.59;102639.59;5076442;28;20312;-79